Toledo Express Airport
KTOL : rendu visible

Aérodrome :











RETROUVEZ-NOUS SUR...

 
LOGIN :

S'inscrire | Disclaimer

   EN    FR    IT 

 









Légende :    VFR   VFR Marginal   IFR   IFR Intensif   IFR Très Intensif
Visi : 
Plafond : 
>= 8 km
>= 3000ft
5 à 8 km
1000 à 3000 ft
1500m à 5 km
500 à 1000 ft
800 à 1500m
200 à 500 ft
< 800m
< 200 ft
Symboles :   Orages  Brouillard  Fortes neiges  Fortes précipitations  Vent > 20 kt






- Altitude de l'aérodrome : 683 ft
- Code IATA : TOL


KTOL - Toledo Express

DERNIER METAR :
  • 250152Z 19005KT 10SM CLR 26/18 A2994 RMK AO2 SLP134 T02610178

METARs EXPIRÉS :
  • 250052Z 18004KT 10SM CLR 28/18 A2993 RMK AO2 SLP132 T02830178
  • 242352Z 20008KT 10SM SCT060 31/18 A2993 RMK AO2 SLP130 T03060178 10322 20294 56007

TAF KTOL
Valide du 25 à 00h jusqu'au 26 à 00h UTC


242325Z 2500/2524 23006KT P6SM FEW060
FM250200 21006KT P6SM FEW250
FIR KZOB / Amérique du Nord



MET'MAP, la Météo Aéronautique d'un coup d'oeil ! - Copyright ORBIFLY Décembre 2007 - Disclaimer

ORBIFLY MET'MAP TEAM :

Programmation & Développement : Alexandra Zaïnal
Sur une idée originale de : Baudouin d'Aumeries
Assistance à la programmation : Marc-Olivier Méhu
Soutien technique & logistique : Manuel Goepfert

Contact : metmap@orbifly.com




SOURCES & CREDITS :

   NOAA       Earth
Advisory